Terminal Aerodrome Forecast
Issued by NWS

Home | Current Version | Previous Version | Text Only | Print | Product List | Glossary On
Versions: 1 2 3 4 5 6 7 8 9 10 11 12 13 14 15 16 17 18 19
845
FTUS44 KLIX 211733
TAFMCB
TAF
KMCB 211733Z 2118/2218 27010KT P6SM SCT018 OVC050
     FM212000 26006KT P6SM VCTS BKN025CB BKN060
     FM220000 VRB03KT P6SM BKN140
     FM220300 00000KT P6SM BKN090
     FM220800 VRB03KT 3SM BR BKN010
     FM221500 34007KT P6SM BKN025=

USA.gov is the U.S. government's official web portal to all federal, state and local government web resources and services.